Fort Dearborn, Illinois
Current Conditions -  °F | °C
As of 11:53 AM on Thursday 27 Nov 2014 (Local Time) from KMDW Reporting Station
Broken Clouds Broken Clouds  
Wind Chill: 17°   Ceiling: 2700
Heat Index: 28°   Visibility: 10mi
Dew Point: 17°   Wind: 15mph
Humidity: 63%   Direction: 300°WNW
Pressure: 30.33"   Gusts: NA
Location:  41.8946°N, 87.6187°W
Report Text: KMDW 271753Z 30013KT 10SM BKN027 BKN049 M02/M08 A3033 RMK AO2 SLP285 T10221083 11011 21039 51008
Loading
Personal Weather Stations






























Interactive Weather Map New forecast layout! Learn more

10-Day Weather Forecast

Advertisements
Track Severe Weather on mobile